sensor_id;sensor_type;location;lat;lon;timestamp;P1;durP1;ratioP1;P2;durP2;ratioP2
46288;SDS011;63105;46.158;14.604;2023-03-15T00:00:39;17.75;;;12.45;;
46288;SDS011;63105;46.158;14.604;2023-03-15T00:03:06;15.50;;;11.23;;
46288;SDS011;63105;46.158;14.604;2023-03-15T00:05:31;13.82;;;10.05;;
46288;SDS011;63105;46.158;14.604;2023-03-15T00:07:57;14.18;;;10.82;;
46288;SDS011;63105;46.158;14.604;2023-03-15T00:10:22;15.50;;;10.18;;
46288;SDS011;63105;46.158;14.604;2023-03-15T00:12:47;13.35;;;9.20;;
46288;SDS011;63105;46.158;14.604;2023-03-15T00:15:13;16.13;;;11.32;;
46288;SDS011;63105;46.158;14.604;2023-03-15T00:17:39;16.60;;;11.95;;
46288;SDS011;63105;46.158;14.604;2023-03-15T00:20:04;16.02;;;11.75;;
46288;SDS011;63105;46.158;14.604;2023-03-15T00:22:30;16.90;;;11.35;;
46288;SDS011;63105;46.158;14.604;2023-03-15T00:24:55;17.05;;;12.10;;
46288;SDS011;63105;46.158;14.604;2023-03-15T00:27:21;17.90;;;12.45;;
46288;SDS011;63105;46.158;14.604;2023-03-15T00:29:46;16.45;;;11.98;;
46288;SDS011;63105;46.158;14.604;2023-03-15T00:32:11;14.68;;;10.27;;
46288;SDS011;63105;46.158;14.604;2023-03-15T00:34:36;16.23;;;10.25;;
46288;SDS011;63105;46.158;14.604;2023-03-15T00:37:02;13.57;;;9.80;;
46288;SDS011;63105;46.158;14.604;2023-03-15T00:39:27;13.55;;;10.25;;
46288;SDS011;63105;46.158;14.604;2023-03-15T00:41:52;13.82;;;9.73;;
46288;SDS011;63105;46.158;14.604;2023-03-15T00:44:21;13.43;;;9.82;;
46288;SDS011;63105;46.158;14.604;2023-03-15T00:46:46;15.45;;;10.27;;
46288;SDS011;63105;46.158;14.604;2023-03-15T00:49:12;14.57;;;10.05;;
46288;SDS011;63105;46.158;14.604;2023-03-15T00:51:37;15.35;;;10.55;;
46288;SDS011;63105;46.158;14.604;2023-03-15T00:54:02;13.80;;;10.13;;
46288;SDS011;63105;46.158;14.604;2023-03-15T00:56:27;14.25;;;10.23;;
46288;SDS011;63105;46.158;14.604;2023-03-15T00:58:56;12.95;;;9.60;;
46288;SDS011;63105;46.158;14.604;2023-03-15T01:01:22;15.00;;;10.27;;
46288;SDS011;63105;46.158;14.604;2023-03-15T01:03:48;13.75;;;10.32;;
46288;SDS011;63105;46.158;14.604;2023-03-15T01:06:14;16.50;;;10.70;;
46288;SDS011;63105;46.158;14.604;2023-03-15T01:08:40;13.80;;;10.38;;
46288;SDS011;63105;46.158;14.604;2023-03-15T01:11:06;16.48;;;10.70;;
46288;SDS011;63105;46.158;14.604;2023-03-15T01:13:32;13.15;;;9.98;;
46288;SDS011;63105;46.158;14.604;2023-03-15T01:15:57;15.55;;;10.60;;
46288;SDS011;63105;46.158;14.604;2023-03-15T01:18:22;15.23;;;10.57;;
46288;SDS011;63105;46.158;14.604;2023-03-15T01:20:48;13.55;;;10.00;;
46288;SDS011;63105;46.158;14.604;2023-03-15T01:23:13;15.05;;;11.23;;
46288;SDS011;63105;46.158;14.604;2023-03-15T01:25:38;15.85;;;11.05;;
46288;SDS011;63105;46.158;14.604;2023-03-15T01:28:03;18.48;;;12.27;;
46288;SDS011;63105;46.158;14.604;2023-03-15T01:30:29;16.35;;;11.80;;
46288;SDS011;63105;46.158;14.604;2023-03-15T01:32:54;15.82;;;10.88;;
46288;SDS011;63105;46.158;14.604;2023-03-15T01:35:19;15.88;;;11.25;;
46288;SDS011;63105;46.158;14.604;2023-03-15T01:37:47;16.10;;;11.23;;
46288;SDS011;63105;46.158;14.604;2023-03-15T01:40:13;17.58;;;12.68;;
46288;SDS011;63105;46.158;14.604;2023-03-15T01:48:06;15.82;;;10.45;;
46288;SDS011;63105;46.158;14.604;2023-03-15T01:50:31;15.23;;;10.93;;
46288;SDS011;63105;46.158;14.604;2023-03-15T01:52:56;14.30;;;10.77;;
46288;SDS011;63105;46.158;14.604;2023-03-15T01:55:22;16.13;;;11.43;;
46288;SDS011;63105;46.158;14.604;2023-03-15T01:57:52;15.20;;;10.90;;
46288;SDS011;63105;46.158;14.604;2023-03-15T02:00:20;15.75;;;11.27;;
46288;SDS011;63105;46.158;14.604;2023-03-15T02:02:46;18.40;;;13.07;;
46288;SDS011;63105;46.158;14.604;2023-03-15T02:05:14;18.90;;;13.93;;
46288;SDS011;63105;46.158;14.604;2023-03-15T02:07:41;17.80;;;12.50;;
46288;SDS011;63105;46.158;14.604;2023-03-15T02:10:15;16.13;;;11.75;;
46288;SDS011;63105;46.158;14.604;2023-03-15T02:12:47;15.50;;;11.57;;
46288;SDS011;63105;46.158;14.604;2023-03-15T02:15:15;16.50;;;11.88;;
46288;SDS011;63105;46.158;14.604;2023-03-15T02:17:42;14.82;;;11.15;;
46288;SDS011;63105;46.158;14.604;2023-03-15T02:27:31;18.73;;;13.90;;
46288;SDS011;63105;46.158;14.604;2023-03-15T02:29:58;18.00;;;13.50;;
46288;SDS011;63105;46.158;14.604;2023-03-15T02:32:27;18.50;;;13.45;;
46288;SDS011;63105;46.158;14.604;2023-03-15T02:34:52;20.20;;;14.15;;
46288;SDS011;63105;46.158;14.604;2023-03-15T02:37:17;16.70;;;12.15;;
46288;SDS011;63105;46.158;14.604;2023-03-15T02:39:42;18.83;;;13.63;;
46288;SDS011;63105;46.158;14.604;2023-03-15T02:42:08;18.65;;;13.32;;
46288;SDS011;63105;46.158;14.604;2023-03-15T02:44:34;15.88;;;11.73;;
46288;SDS011;63105;46.158;14.604;2023-03-15T02:47:21;14.88;;;10.93;;
46288;SDS011;63105;46.158;14.604;2023-03-15T02:52:12;16.23;;;11.27;;
46288;SDS011;63105;46.158;14.604;2023-03-15T02:54:38;15.45;;;10.93;;
46288;SDS011;63105;46.158;14.604;2023-03-15T02:57:07;15.82;;;11.55;;
46288;SDS011;63105;46.158;14.604;2023-03-15T02:59:32;17.25;;;12.15;;
46288;SDS011;63105;46.158;14.604;2023-03-15T03:01:58;15.35;;;11.38;;
46288;SDS011;63105;46.158;14.604;2023-03-15T03:04:23;14.65;;;10.68;;
46288;SDS011;63105;46.158;14.604;2023-03-15T03:06:48;15.38;;;11.02;;
46288;SDS011;63105;46.158;14.604;2023-03-15T03:09:13;15.40;;;10.82;;
46288;SDS011;63105;46.158;14.604;2023-03-15T03:11:41;15.43;;;11.38;;
46288;SDS011;63105;46.158;14.604;2023-03-15T03:14:07;17.80;;;11.82;;
46288;SDS011;63105;46.158;14.604;2023-03-15T03:16:32;14.27;;;10.05;;
46288;SDS011;63105;46.158;14.604;2023-03-15T03:18:58;13.63;;;10.00;;
46288;SDS011;63105;46.158;14.604;2023-03-15T03:21:23;14.57;;;11.00;;
46288;SDS011;63105;46.158;14.604;2023-03-15T03:23:48;13.90;;;10.15;;
46288;SDS011;63105;46.158;14.604;2023-03-15T03:26:14;14.60;;;10.23;;
46288;SDS011;63105;46.158;14.604;2023-03-15T03:28:43;12.57;;;8.70;;
46288;SDS011;63105;46.158;14.604;2023-03-15T03:31:25;14.32;;;9.50;;
46288;SDS011;63105;46.158;14.604;2023-03-15T03:33:51;13.00;;;9.35;;
46288;SDS011;63105;46.158;14.604;2023-03-15T03:36:16;12.32;;;8.60;;
46288;SDS011;63105;46.158;14.604;2023-03-15T03:38:43;12.27;;;9.07;;
46288;SDS011;63105;46.158;14.604;2023-03-15T03:41:08;11.32;;;7.93;;
46288;SDS011;63105;46.158;14.604;2023-03-15T03:43:34;11.45;;;7.88;;
46288;SDS011;63105;46.158;14.604;2023-03-15T03:45:59;11.77;;;8.60;;
46288;SDS011;63105;46.158;14.604;2023-03-15T03:48:24;11.13;;;7.82;;
46288;SDS011;63105;46.158;14.604;2023-03-15T03:50:49;10.73;;;7.60;;
46288;SDS011;63105;46.158;14.604;2023-03-15T03:53:15;10.98;;;7.68;;
46288;SDS011;63105;46.158;14.604;2023-03-15T03:55:40;11.43;;;7.78;;
46288;SDS011;63105;46.158;14.604;2023-03-15T03:58:06;11.27;;;8.20;;
46288;SDS011;63105;46.158;14.604;2023-03-15T04:00:32;10.23;;;7.45;;
46288;SDS011;63105;46.158;14.604;2023-03-15T04:02:57;11.18;;;7.30;;
46288;SDS011;63105;46.158;14.604;2023-03-15T04:05:22;9.35;;;6.22;;
46288;SDS011;63105;46.158;14.604;2023-03-15T04:07:47;9.82;;;6.80;;
46288;SDS011;63105;46.158;14.604;2023-03-15T04:10:13;9.60;;;6.53;;
46288;SDS011;63105;46.158;14.604;2023-03-15T04:12:40;9.13;;;6.15;;
46288;SDS011;63105;46.158;14.604;2023-03-15T04:15:05;10.85;;;6.93;;
46288;SDS011;63105;46.158;14.604;2023-03-15T04:17:31;10.15;;;6.70;;
46288;SDS011;63105;46.158;14.604;2023-03-15T04:19:56;9.70;;;6.63;;
46288;SDS011;63105;46.158;14.604;2023-03-15T04:22:23;9.48;;;6.75;;
46288;SDS011;63105;46.158;14.604;2023-03-15T04:24:48;8.25;;;5.90;;
46288;SDS011;63105;46.158;14.604;2023-03-15T04:27:14;9.27;;;6.30;;
46288;SDS011;63105;46.158;14.604;2023-03-15T04:29:40;8.43;;;6.07;;
46288;SDS011;63105;46.158;14.604;2023-03-15T04:32:06;8.95;;;6.03;;
46288;SDS011;63105;46.158;14.604;2023-03-15T04:34:31;8.90;;;6.40;;
46288;SDS011;63105;46.158;14.604;2023-03-15T04:36:56;8.40;;;5.72;;
46288;SDS011;63105;46.158;14.604;2023-03-15T04:39:22;8.13;;;5.32;;
46288;SDS011;63105;46.158;14.604;2023-03-15T04:41:47;8.20;;;5.47;;
46288;SDS011;63105;46.158;14.604;2023-03-15T04:44:13;8.15;;;5.38;;
46288;SDS011;63105;46.158;14.604;2023-03-15T04:46:41;8.10;;;5.13;;
46288;SDS011;63105;46.158;14.604;2023-03-15T04:49:07;8.10;;;5.63;;
46288;SDS011;63105;46.158;14.604;2023-03-15T04:51:33;7.93;;;4.97;;
46288;SDS011;63105;46.158;14.604;2023-03-15T04:53:58;7.63;;;5.28;;
46288;SDS011;63105;46.158;14.604;2023-03-15T04:56:24;7.18;;;4.95;;
46288;SDS011;63105;46.158;14.604;2023-03-15T04:58:49;8.40;;;5.85;;
46288;SDS011;63105;46.158;14.604;2023-03-15T05:01:14;8.05;;;5.47;;
46288;SDS011;63105;46.158;14.604;2023-03-15T05:03:40;8.57;;;5.40;;
46288;SDS011;63105;46.158;14.604;2023-03-15T05:06:05;8.70;;;5.88;;
46288;SDS011;63105;46.158;14.604;2023-03-15T05:08:35;8.52;;;5.50;;
46288;SDS011;63105;46.158;14.604;2023-03-15T05:11:03;8.40;;;5.00;;
46288;SDS011;63105;46.158;14.604;2023-03-15T05:13:29;7.10;;;4.68;;
46288;SDS011;63105;46.158;14.604;2023-03-15T05:15:54;7.72;;;4.95;;
46288;SDS011;63105;46.158;14.604;2023-03-15T05:18:19;8.30;;;5.18;;
46288;SDS011;63105;46.158;14.604;2023-03-15T05:20:45;8.55;;;5.13;;
46288;SDS011;63105;46.158;14.604;2023-03-15T05:23:11;8.20;;;5.30;;
46288;SDS011;63105;46.158;14.604;2023-03-15T05:25:37;7.93;;;4.68;;
46288;SDS011;63105;46.158;14.604;2023-03-15T05:28:02;7.68;;;4.90;;
46288;SDS011;63105;46.158;14.604;2023-03-15T05:30:29;6.63;;;4.50;;
46288;SDS011;63105;46.158;14.604;2023-03-15T05:32:54;7.68;;;5.03;;
46288;SDS011;63105;46.158;14.604;2023-03-15T05:35:20;7.40;;;4.88;;
46288;SDS011;63105;46.158;14.604;2023-03-15T05:37:48;8.13;;;4.78;;
46288;SDS011;63105;46.158;14.604;2023-03-15T05:40:13;8.00;;;4.95;;
46288;SDS011;63105;46.158;14.604;2023-03-15T05:42:39;8.20;;;5.07;;
46288;SDS011;63105;46.158;14.604;2023-03-15T05:45:05;8.13;;;5.20;;
46288;SDS011;63105;46.158;14.604;2023-03-15T05:47:30;7.63;;;5.10;;
46288;SDS011;63105;46.158;14.604;2023-03-15T05:49:55;8.23;;;4.93;;
46288;SDS011;63105;46.158;14.604;2023-03-15T05:52:21;8.05;;;5.18;;
46288;SDS011;63105;46.158;14.604;2023-03-15T05:54:46;8.13;;;5.25;;
46288;SDS011;63105;46.158;14.604;2023-03-15T05:57:11;8.43;;;5.45;;
46288;SDS011;63105;46.158;14.604;2023-03-15T05:59:36;9.32;;;5.38;;
46288;SDS011;63105;46.158;14.604;2023-03-15T06:02:02;9.85;;;5.55;;
46288;SDS011;63105;46.158;14.604;2023-03-15T06:04:27;8.30;;;4.82;;
46288;SDS011;63105;46.158;14.604;2023-03-15T06:06:53;8.25;;;4.85;;
46288;SDS011;63105;46.158;14.604;2023-03-15T06:09:18;7.68;;;4.63;;
46288;SDS011;63105;46.158;14.604;2023-03-15T06:11:43;7.80;;;4.93;;
46288;SDS011;63105;46.158;14.604;2023-03-15T06:14:08;7.00;;;4.55;;
46288;SDS011;63105;46.158;14.604;2023-03-15T06:16:34;7.65;;;4.43;;
46288;SDS011;63105;46.158;14.604;2023-03-15T06:18:59;7.00;;;4.28;;
46288;SDS011;63105;46.158;14.604;2023-03-15T06:21:24;7.30;;;4.57;;
46288;SDS011;63105;46.158;14.604;2023-03-15T06:23:50;7.20;;;4.10;;
46288;SDS011;63105;46.158;14.604;2023-03-15T06:26:15;6.57;;;4.13;;
46288;SDS011;63105;46.158;14.604;2023-03-15T06:28:42;6.40;;;3.53;;
46288;SDS011;63105;46.158;14.604;2023-03-15T06:31:08;6.78;;;3.65;;
46288;SDS011;63105;46.158;14.604;2023-03-15T06:33:34;6.53;;;3.83;;
46288;SDS011;63105;46.158;14.604;2023-03-15T06:35:59;6.55;;;3.95;;
46288;SDS011;63105;46.158;14.604;2023-03-15T06:38:24;6.82;;;4.03;;
46288;SDS011;63105;46.158;14.604;2023-03-15T06:40:49;6.82;;;4.05;;
46288;SDS011;63105;46.158;14.604;2023-03-15T06:43:15;7.50;;;4.18;;
46288;SDS011;63105;46.158;14.604;2023-03-15T06:45:44;8.02;;;4.53;;
46288;SDS011;63105;46.158;14.604;2023-03-15T06:48:09;7.35;;;4.40;;
46288;SDS011;63105;46.158;14.604;2023-03-15T06:50:34;8.00;;;4.20;;
46288;SDS011;63105;46.158;14.604;2023-03-15T06:53:00;8.50;;;4.50;;
46288;SDS011;63105;46.158;14.604;2023-03-15T06:55:47;9.23;;;5.85;;
46288;SDS011;63105;46.158;14.604;2023-03-15T06:58:12;8.40;;;5.10;;
46288;SDS011;63105;46.158;14.604;2023-03-15T07:00:38;8.35;;;4.85;;
46288;SDS011;63105;46.158;14.604;2023-03-15T07:03:03;7.07;;;4.50;;
46288;SDS011;63105;46.158;14.604;2023-03-15T07:05:29;7.13;;;4.28;;
46288;SDS011;63105;46.158;14.604;2023-03-15T07:07:54;7.10;;;4.32;;
46288;SDS011;63105;46.158;14.604;2023-03-15T07:10:19;9.27;;;5.93;;
46288;SDS011;63105;46.158;14.604;2023-03-15T07:12:45;7.60;;;4.38;;
46288;SDS011;63105;46.158;14.604;2023-03-15T07:15:10;6.78;;;4.20;;
46288;SDS011;63105;46.158;14.604;2023-03-15T07:17:36;7.10;;;4.03;;
46288;SDS011;63105;46.158;14.604;2023-03-15T07:20:02;6.72;;;3.72;;
46288;SDS011;63105;46.158;14.604;2023-03-15T07:22:29;6.60;;;3.60;;
46288;SDS011;63105;46.158;14.604;2023-03-15T07:24:55;6.38;;;3.80;;
46288;SDS011;63105;46.158;14.604;2023-03-15T07:27:20;6.15;;;3.30;;
46288;SDS011;63105;46.158;14.604;2023-03-15T07:29:45;5.30;;;3.20;;
46288;SDS011;63105;46.158;14.604;2023-03-15T07:32:10;5.55;;;3.25;;
46288;SDS011;63105;46.158;14.604;2023-03-15T07:34:35;5.30;;;3.20;;
46288;SDS011;63105;46.158;14.604;2023-03-15T07:37:01;6.70;;;3.10;;
46288;SDS011;63105;46.158;14.604;2023-03-15T07:39:26;5.18;;;3.15;;
46288;SDS011;63105;46.158;14.604;2023-03-15T07:41:53;5.97;;;3.30;;
46288;SDS011;63105;46.158;14.604;2023-03-15T07:44:18;5.55;;;3.00;;
46288;SDS011;63105;46.158;14.604;2023-03-15T07:46:43;6.63;;;3.22;;
46288;SDS011;63105;46.158;14.604;2023-03-15T07:49:09;5.72;;;3.42;;
46288;SDS011;63105;46.158;14.604;2023-03-15T07:51:34;5.57;;;3.22;;
46288;SDS011;63105;46.158;14.604;2023-03-15T07:53:59;6.60;;;3.72;;
46288;SDS011;63105;46.158;14.604;2023-03-15T07:56:26;6.10;;;3.45;;
46288;SDS011;63105;46.158;14.604;2023-03-15T07:58:51;5.55;;;3.35;;
46288;SDS011;63105;46.158;14.604;2023-03-15T08:01:16;5.15;;;2.83;;
46288;SDS011;63105;46.158;14.604;2023-03-15T08:03:41;5.53;;;3.08;;
46288;SDS011;63105;46.158;14.604;2023-03-15T08:06:07;4.72;;;2.72;;
46288;SDS011;63105;46.158;14.604;2023-03-15T08:08:32;5.63;;;2.97;;
46288;SDS011;63105;46.158;14.604;2023-03-15T08:10:58;5.72;;;3.17;;
46288;SDS011;63105;46.158;14.604;2023-03-15T08:13:23;6.03;;;2.95;;
46288;SDS011;63105;46.158;14.604;2023-03-15T08:15:49;5.68;;;3.30;;
46288;SDS011;63105;46.158;14.604;2023-03-15T08:18:14;5.80;;;3.20;;
46288;SDS011;63105;46.158;14.604;2023-03-15T08:20:39;5.57;;;2.60;;
46288;SDS011;63105;46.158;14.604;2023-03-15T08:23:05;6.43;;;3.10;;
46288;SDS011;63105;46.158;14.604;2023-03-15T08:25:30;6.13;;;2.97;;
46288;SDS011;63105;46.158;14.604;2023-03-15T08:27:55;5.38;;;2.90;;
46288;SDS011;63105;46.158;14.604;2023-03-15T08:30:21;5.00;;;2.60;;
46288;SDS011;63105;46.158;14.604;2023-03-15T08:32:46;4.82;;;2.30;;
46288;SDS011;63105;46.158;14.604;2023-03-15T08:35:13;4.45;;;2.08;;
46288;SDS011;63105;46.158;14.604;2023-03-15T08:37:39;4.05;;;2.13;;
46288;SDS011;63105;46.158;14.604;2023-03-15T08:40:07;4.55;;;2.15;;
46288;SDS011;63105;46.158;14.604;2023-03-15T08:42:44;4.68;;;2.30;;
46288;SDS011;63105;46.158;14.604;2023-03-15T08:45:09;6.15;;;2.30;;
46288;SDS011;63105;46.158;14.604;2023-03-15T08:48:13;4.63;;;2.40;;
46288;SDS011;63105;46.158;14.604;2023-03-15T08:50:38;4.15;;;2.28;;
46288;SDS011;63105;46.158;14.604;2023-03-15T08:53:03;4.20;;;2.10;;
46288;SDS011;63105;46.158;14.604;2023-03-15T08:55:29;4.50;;;2.15;;
46288;SDS011;63105;46.158;14.604;2023-03-15T08:57:57;3.78;;;2.00;;
46288;SDS011;63105;46.158;14.604;2023-03-15T09:00:31;4.07;;;1.92;;
46288;SDS011;63105;46.158;14.604;2023-03-15T09:02:56;4.40;;;1.88;;
46288;SDS011;63105;46.158;14.604;2023-03-15T09:05:22;4.13;;;1.95;;
46288;SDS011;63105;46.158;14.604;2023-03-15T09:07:48;3.55;;;1.75;;
46288;SDS011;63105;46.158;14.604;2023-03-15T09:10:15;3.92;;;1.90;;
46288;SDS011;63105;46.158;14.604;2023-03-15T09:13:03;4.00;;;1.90;;
46288;SDS011;63105;46.158;14.604;2023-03-15T09:15:28;3.38;;;1.65;;
46288;SDS011;63105;46.158;14.604;2023-03-15T09:17:54;4.60;;;1.88;;
46288;SDS011;63105;46.158;14.604;2023-03-15T09:20:19;3.28;;;1.42;;
46288;SDS011;63105;46.158;14.604;2023-03-15T09:22:53;4.10;;;1.60;;
46288;SDS011;63105;46.158;14.604;2023-03-15T09:25:19;3.28;;;1.50;;
46288;SDS011;63105;46.158;14.604;2023-03-15T09:27:44;3.05;;;1.40;;
46288;SDS011;63105;46.158;14.604;2023-03-15T09:30:10;3.15;;;1.40;;
46288;SDS011;63105;46.158;14.604;2023-03-15T09:32:35;2.58;;;1.08;;
46288;SDS011;63105;46.158;14.604;2023-03-15T09:35:01;3.20;;;1.20;;
46288;SDS011;63105;46.158;14.604;2023-03-15T09:37:27;2.53;;;1.05;;
46288;SDS011;63105;46.158;14.604;2023-03-15T09:39:52;2.00;;;0.82;;
46288;SDS011;63105;46.158;14.604;2023-03-15T09:42:20;2.25;;;0.90;;
46288;SDS011;63105;46.158;14.604;2023-03-15T09:44:47;2.70;;;0.90;;
46288;SDS011;63105;46.158;14.604;2023-03-15T09:50:00;2.78;;;0.95;;
46288;SDS011;63105;46.158;14.604;2023-03-15T09:52:29;1.85;;;0.80;;
46288;SDS011;63105;46.158;14.604;2023-03-15T09:54:57;2.47;;;0.80;;
46288;SDS011;63105;46.158;14.604;2023-03-15T09:57:34;1.88;;;0.70;;
46288;SDS011;63105;46.158;14.604;2023-03-15T10:00:03;2.30;;;0.80;;
46288;SDS011;63105;46.158;14.604;2023-03-15T10:02:32;2.85;;;0.80;;
46288;SDS011;63105;46.158;14.604;2023-03-15T10:05:03;2.45;;;0.80;;
46288;SDS011;63105;46.158;14.604;2023-03-15T10:07:29;2.00;;;0.80;;
46288;SDS011;63105;46.158;14.604;2023-03-15T10:09:56;2.00;;;0.70;;
46288;SDS011;63105;46.158;14.604;2023-03-15T10:12:29;1.55;;;0.60;;
46288;SDS011;63105;46.158;14.604;2023-03-15T10:17:44;2.10;;;0.80;;
46288;SDS011;63105;46.158;14.604;2023-03-15T10:20:16;3.22;;;0.98;;
46288;SDS011;63105;46.158;14.604;2023-03-15T10:22:47;2.88;;;0.93;;
46288;SDS011;63105;46.158;14.604;2023-03-15T10:28:22;1.25;;;0.60;;
46288;SDS011;63105;46.158;14.604;2023-03-15T10:30:29;2.45;;;0.80;;
46288;SDS011;63105;46.158;14.604;2023-03-15T10:32:56;2.35;;;0.73;;
46288;SDS011;63105;46.158;14.604;2023-03-15T10:35:22;1.88;;;0.70;;
46288;SDS011;63105;46.158;14.604;2023-03-15T10:37:47;2.05;;;0.70;;
46288;SDS011;63105;46.158;14.604;2023-03-15T10:43:15;2.53;;;0.88;;
46288;SDS011;63105;46.158;14.604;2023-03-15T10:45:49;1.90;;;0.70;;
46288;SDS011;63105;46.158;14.604;2023-03-15T10:48:25;3.00;;;0.93;;
46288;SDS011;63105;46.158;14.604;2023-03-15T10:50:56;2.53;;;0.95;;
46288;SDS011;63105;46.158;14.604;2023-03-15T10:53:24;1.55;;;0.70;;
46288;SDS011;63105;46.158;14.604;2023-03-15T10:56:15;2.47;;;0.98;;
46288;SDS011;63105;46.158;14.604;2023-03-15T11:01:23;2.70;;;0.90;;
46288;SDS011;63105;46.158;14.604;2023-03-15T11:06:48;3.20;;;0.93;;
46288;SDS011;63105;46.158;14.604;2023-03-15T11:09:51;2.45;;;0.80;;
46288;SDS011;63105;46.158;14.604;2023-03-15T11:12:44;3.00;;;0.80;;
46288;SDS011;63105;46.158;14.604;2023-03-15T11:18:54;2.22;;;0.70;;
46288;SDS011;63105;46.158;14.604;2023-03-15T11:21:27;2.10;;;0.70;;
46288;SDS011;63105;46.158;14.604;2023-03-15T11:24:04;3.60;;;1.70;;
46288;SDS011;63105;46.158;14.604;2023-03-15T11:26:43;4.90;;;2.60;;
46288;SDS011;63105;46.158;14.604;2023-03-15T11:32:42;10.98;;;7.40;;
46288;SDS011;63105;46.158;14.604;2023-03-15T11:35:18;4.40;;;3.00;;
46288;SDS011;63105;46.158;14.604;2023-03-15T11:37:51;4.38;;;1.83;;
46288;SDS011;63105;46.158;14.604;2023-03-15T11:40:33;2.80;;;1.00;;
46288;SDS011;63105;46.158;14.604;2023-03-15T11:43:48;2.90;;;1.10;;
46288;SDS011;63105;46.158;14.604;2023-03-15T11:46:09;3.13;;;1.27;;
46288;SDS011;63105;46.158;14.604;2023-03-15T11:48:37;1.98;;;0.70;;
46288;SDS011;63105;46.158;14.604;2023-03-15T11:51:05;3.38;;;0.63;;
46288;SDS011;63105;46.158;14.604;2023-03-15T11:53:34;2.28;;;0.60;;
46288;SDS011;63105;46.158;14.604;2023-03-15T11:56:24;2.03;;;0.60;;
46288;SDS011;63105;46.158;14.604;2023-03-15T11:58:58;1.73;;;0.70;;
46288;SDS011;63105;46.158;14.604;2023-03-15T12:01:26;4.95;;;0.60;;
46288;SDS011;63105;46.158;14.604;2023-03-15T12:03:54;1.63;;;0.50;;
46288;SDS011;63105;46.158;14.604;2023-03-15T12:06:36;1.38;;;0.43;;
46288;SDS011;63105;46.158;14.604;2023-03-15T12:09:02;1.77;;;0.60;;
46288;SDS011;63105;46.158;14.604;2023-03-15T12:11:47;1.40;;;0.47;;
46288;SDS011;63105;46.158;14.604;2023-03-15T12:14:24;1.75;;;0.60;;
46288;SDS011;63105;46.158;14.604;2023-03-15T12:16:52;1.38;;;0.20;;
46288;SDS011;63105;46.158;14.604;2023-03-15T12:19:37;1.13;;;0.30;;
46288;SDS011;63105;46.158;14.604;2023-03-15T12:22:02;1.45;;;0.40;;
46288;SDS011;63105;46.158;14.604;2023-03-15T12:24:29;2.60;;;0.68;;
46288;SDS011;63105;46.158;14.604;2023-03-15T12:27:05;1.83;;;0.52;;
46288;SDS011;63105;46.158;14.604;2023-03-15T12:29:38;2.08;;;0.50;;
46288;SDS011;63105;46.158;14.604;2023-03-15T12:32:05;0.63;;;0.40;;
46288;SDS011;63105;46.158;14.604;2023-03-15T12:34:36;1.33;;;0.50;;
46288;SDS011;63105;46.158;14.604;2023-03-15T12:37:11;1.27;;;0.50;;
46288;SDS011;63105;46.158;14.604;2023-03-15T12:42:02;2.45;;;0.90;;
46288;SDS011;63105;46.158;14.604;2023-03-15T12:47:00;1.27;;;0.40;;
46288;SDS011;63105;46.158;14.604;2023-03-15T12:57:09;1.35;;;0.52;;
46288;SDS011;63105;46.158;14.604;2023-03-15T12:59:54;2.03;;;0.65;;
46288;SDS011;63105;46.158;14.604;2023-03-15T13:04:58;7.67;;;3.73;;
46288;SDS011;63105;46.158;14.604;2023-03-15T13:07:30;7.22;;;4.00;;
46288;SDS011;63105;46.158;14.604;2023-03-15T13:10:05;7.18;;;2.00;;
46288;SDS011;63105;46.158;14.604;2023-03-15T13:12:39;7.68;;;3.65;;
46288;SDS011;63105;46.158;14.604;2023-03-15T13:20:36;4.25;;;2.10;;
46288;SDS011;63105;46.158;14.604;2023-03-15T13:25:29;4.13;;;1.65;;
46288;SDS011;63105;46.158;14.604;2023-03-15T13:30:45;7.80;;;1.30;;
46288;SDS011;63105;46.158;14.604;2023-03-15T13:35:56;2.25;;;0.90;;
46288;SDS011;63105;46.158;14.604;2023-03-15T13:38:29;2.22;;;0.70;;
46288;SDS011;63105;46.158;14.604;2023-03-15T13:40:55;5.00;;;1.00;;
46288;SDS011;63105;46.158;14.604;2023-03-15T13:43:31;4.10;;;1.23;;
46288;SDS011;63105;46.158;14.604;2023-03-15T13:45:57;2.70;;;1.00;;
46288;SDS011;63105;46.158;14.604;2023-03-15T13:48:24;1.92;;;0.70;;
46288;SDS011;63105;46.158;14.604;2023-03-15T13:50:50;1.60;;;0.60;;
46288;SDS011;63105;46.158;14.604;2023-03-15T13:53:23;1.33;;;0.38;;
46288;SDS011;63105;46.158;14.604;2023-03-15T13:55:50;1.92;;;0.75;;
46288;SDS011;63105;46.158;14.604;2023-03-15T13:58:16;2.65;;;0.50;;
46288;SDS011;63105;46.158;14.604;2023-03-15T14:00:41;1.30;;;0.40;;
46288;SDS011;63105;46.158;14.604;2023-03-15T14:03:07;1.48;;;0.57;;
46288;SDS011;63105;46.158;14.604;2023-03-15T14:05:47;0.52;;;0.25;;
46288;SDS011;63105;46.158;14.604;2023-03-15T14:08:32;1.83;;;0.60;;
46288;SDS011;63105;46.158;14.604;2023-03-15T14:11:06;1.55;;;0.47;;
46288;SDS011;63105;46.158;14.604;2023-03-15T14:13:34;0.90;;;0.22;;
46288;SDS011;63105;46.158;14.604;2023-03-15T14:16:13;3.22;;;0.60;;
46288;SDS011;63105;46.158;14.604;2023-03-15T14:18:39;3.72;;;0.85;;
46288;SDS011;63105;46.158;14.604;2023-03-15T14:23:30;3.65;;;1.15;;
46288;SDS011;63105;46.158;14.604;2023-03-15T14:28:29;2.92;;;0.70;;
46288;SDS011;63105;46.158;14.604;2023-03-15T14:30:56;1.45;;;0.60;;
46288;SDS011;63105;46.158;14.604;2023-03-15T14:33:42;4.95;;;0.88;;
46288;SDS011;63105;46.158;14.604;2023-03-15T14:36:10;2.42;;;0.90;;
46288;SDS011;63105;46.158;14.604;2023-03-15T14:38:48;2.90;;;0.90;;
46288;SDS011;63105;46.158;14.604;2023-03-15T14:41:22;3.25;;;1.10;;
46288;SDS011;63105;46.158;14.604;2023-03-15T14:43:48;4.10;;;1.30;;
46288;SDS011;63105;46.158;14.604;2023-03-15T14:46:13;3.00;;;1.13;;
46288;SDS011;63105;46.158;14.604;2023-03-15T14:48:38;2.10;;;0.70;;
46288;SDS011;63105;46.158;14.604;2023-03-15T14:51:04;2.03;;;0.90;;
46288;SDS011;63105;46.158;14.604;2023-03-15T14:53:33;2.45;;;1.02;;
46288;SDS011;63105;46.158;14.604;2023-03-15T14:55:59;3.58;;;1.00;;
46288;SDS011;63105;46.158;14.604;2023-03-15T14:58:24;3.42;;;1.52;;
46288;SDS011;63105;46.158;14.604;2023-03-15T15:00:51;2.70;;;0.80;;
46288;SDS011;63105;46.158;14.604;2023-03-15T15:05:48;1.58;;;0.60;;
46288;SDS011;63105;46.158;14.604;2023-03-15T15:08:14;4.25;;;1.65;;
46288;SDS011;63105;46.158;14.604;2023-03-15T15:10:40;2.75;;;1.10;;
46288;SDS011;63105;46.158;14.604;2023-03-15T15:13:08;4.32;;;1.52;;
46288;SDS011;63105;46.158;14.604;2023-03-15T15:15:34;3.28;;;1.30;;
46288;SDS011;63105;46.158;14.604;2023-03-15T15:18:00;3.05;;;1.15;;
46288;SDS011;63105;46.158;14.604;2023-03-15T15:20:25;3.03;;;1.27;;
46288;SDS011;63105;46.158;14.604;2023-03-15T15:22:50;3.50;;;1.40;;
46288;SDS011;63105;46.158;14.604;2023-03-15T15:25:19;1.95;;;0.70;;
46288;SDS011;63105;46.158;14.604;2023-03-15T15:27:45;0.95;;;0.47;;
46288;SDS011;63105;46.158;14.604;2023-03-15T15:30:12;1.85;;;0.43;;
46288;SDS011;63105;46.158;14.604;2023-03-15T15:32:38;2.72;;;0.68;;
46288;SDS011;63105;46.158;14.604;2023-03-15T15:35:03;1.00;;;0.43;;
46288;SDS011;63105;46.158;14.604;2023-03-15T15:37:28;3.20;;;0.68;;
46288;SDS011;63105;46.158;14.604;2023-03-15T15:39:53;4.00;;;1.00;;
46288;SDS011;63105;46.158;14.604;2023-03-15T15:42:19;6.15;;;2.08;;
46288;SDS011;63105;46.158;14.604;2023-03-15T15:44:44;9.25;;;3.60;;
46288;SDS011;63105;46.158;14.604;2023-03-15T15:47:10;1.95;;;0.70;;